Terminal Aerodrome Forecast
Issued by NWS

Home | Current Version | Previous Version | Text Only | Print | Product List | Glossary On
Versions: 1 2 3 4 5 6 7 8 9 10 11 12 13 14 15 16 17 18 19 20 21 22 23 24 25 26
256
FTUS43 KSGF 251134
TAFBBG
TAF
KBBG 251134Z 2512/2612 19008KT 6SM -SHRA VCTS BKN025CB OVC050
      TEMPO 2512/2516 3SM -SHRA BR OVC025
     FM251600 18006KT P6SM VCSH SCT025 BKN050 OVC100
     FM252000 18008KT P6SM SCT040 SCT100
     FM260800 17005KT P6SM BKN035=

USA.gov is the U.S. government's official web portal to all federal, state and local government web resources and services.